sensor_id;sensor_type;location;lat;lon;timestamp;pressure;altitude;pressure_sealevel;temperature;humidity
65546;BME280;52177;55.968;37.498;2023-04-16T00:00:27;101230.75;;;2.83;39.27
65546;BME280;52177;55.968;37.498;2023-04-16T00:00:57;101229.09;;;2.82;39.23
65546;BME280;52177;55.968;37.498;2023-04-16T00:01:28;101230.03;;;2.81;39.17
65546;BME280;52177;55.968;37.498;2023-04-16T00:01:58;101231.78;;;2.81;40.07
65546;BME280;52177;55.968;37.498;2023-04-16T00:02:29;101234.63;;;2.78;40.38
65546;BME280;52177;55.968;37.498;2023-04-16T00:02:59;101232.16;;;2.74;40.31
65546;BME280;52177;55.968;37.498;2023-04-16T00:03:29;101239.31;;;2.72;39.98
65546;BME280;52177;55.968;37.498;2023-04-16T00:04:00;101239.38;;;2.71;40.08
65546;BME280;52177;55.968;37.498;2023-04-16T00:04:30;101237.78;;;2.68;40.67
65546;BME280;52177;55.968;37.498;2023-04-16T00:05:00;101233.53;;;2.66;40.60
65546;BME280;52177;55.968;37.498;2023-04-16T00:05:31;101238.88;;;2.64;40.69
65546;BME280;52177;55.968;37.498;2023-04-16T00:06:01;101238.16;;;2.62;40.29
65546;BME280;52177;55.968;37.498;2023-04-16T00:06:32;101236.44;;;2.61;40.81
65546;BME280;52177;55.968;37.498;2023-04-16T00:07:02;101244.41;;;2.60;40.85
65546;BME280;52177;55.968;37.498;2023-04-16T00:07:32;101242.72;;;2.59;40.64
65546;BME280;52177;55.968;37.498;2023-04-16T00:08:03;101236.75;;;2.55;40.70
65546;BME280;52177;55.968;37.498;2023-04-16T00:08:33;101239.50;;;2.53;40.63
65546;BME280;52177;55.968;37.498;2023-04-16T00:09:04;101237.78;;;2.52;40.86
65546;BME280;52177;55.968;37.498;2023-04-16T00:09:35;101243.16;;;2.51;40.90
65546;BME280;52177;55.968;37.498;2023-04-16T00:10:06;101244.91;;;2.50;41.16
65546;BME280;52177;55.968;37.498;2023-04-16T00:10:36;101243.25;;;2.49;41.38
65546;BME280;52177;55.968;37.498;2023-04-16T00:11:07;101240.78;;;2.46;41.57
65546;BME280;52177;55.968;37.498;2023-04-16T00:11:37;101253.94;;;2.46;41.67
65546;BME280;52177;55.968;37.498;2023-04-16T00:12:07;101244.44;;;2.44;41.87
65546;BME280;52177;55.968;37.498;2023-04-16T00:12:38;101243.75;;;2.40;41.83
65546;BME280;52177;55.968;37.498;2023-04-16T00:13:08;101249.09;;;2.39;41.66
65546;BME280;52177;55.968;37.498;2023-04-16T00:13:38;101242.16;;;2.38;41.76
65546;BME280;52177;55.968;37.498;2023-04-16T00:14:09;101245.81;;;2.35;41.93
65546;BME280;52177;55.968;37.498;2023-04-16T00:14:39;101238.81;;;2.34;42.65
65546;BME280;52177;55.968;37.498;2023-04-16T00:15:09;101249.44;;;2.32;42.32
65546;BME280;52177;55.968;37.498;2023-04-16T00:15:40;101252.25;;;2.29;42.10
65546;BME280;52177;55.968;37.498;2023-04-16T00:16:10;101248.00;;;2.27;42.25
65546;BME280;52177;55.968;37.498;2023-04-16T00:16:40;101254.19;;;2.26;42.12
65546;BME280;52177;55.968;37.498;2023-04-16T00:17:11;101249.88;;;2.25;42.41
65546;BME280;52177;55.968;37.498;2023-04-16T00:17:41;101251.66;;;2.24;42.29
65546;BME280;52177;55.968;37.498;2023-04-16T00:18:12;101248.16;;;2.24;42.23
65546;BME280;52177;55.968;37.498;2023-04-16T00:18:42;101246.50;;;2.23;41.94
65546;BME280;52177;55.968;37.498;2023-04-16T00:19:12;101253.63;;;2.21;42.32
65546;BME280;52177;55.968;37.498;2023-04-16T00:19:43;101246.63;;;2.20;42.13
65546;BME280;52177;55.968;37.498;2023-04-16T00:20:13;101254.63;;;2.18;42.15
65546;BME280;52177;55.968;37.498;2023-04-16T00:20:44;101251.22;;;2.16;41.98
65546;BME280;52177;55.968;37.498;2023-04-16T00:21:14;101253.88;;;2.16;42.01
65546;BME280;52177;55.968;37.498;2023-04-16T00:21:44;101251.31;;;2.15;42.06
65546;BME280;52177;55.968;37.498;2023-04-16T00:22:15;101251.31;;;2.15;42.43
65546;BME280;52177;55.968;37.498;2023-04-16T00:22:45;101252.16;;;2.15;42.95
65546;BME280;52177;55.968;37.498;2023-04-16T00:23:15;101251.41;;;2.13;42.88
65546;BME280;52177;55.968;37.498;2023-04-16T00:23:46;101251.47;;;2.11;42.75
65546;BME280;52177;55.968;37.498;2023-04-16T00:24:16;101251.56;;;2.10;42.90
65546;BME280;52177;55.968;37.498;2023-04-16T00:24:47;101255.03;;;2.10;43.17
65546;BME280;52177;55.968;37.498;2023-04-16T00:25:17;101249.03;;;2.08;43.08
65546;BME280;52177;55.968;37.498;2023-04-16T00:25:47;101248.16;;;2.08;42.76
65546;BME280;52177;55.968;37.498;2023-04-16T00:26:18;101250.88;;;2.06;42.77
65546;BME280;52177;55.968;37.498;2023-04-16T00:26:48;101249.19;;;2.05;43.23
65546;BME280;52177;55.968;37.498;2023-04-16T00:27:18;101249.28;;;2.04;43.63
65546;BME280;52177;55.968;37.498;2023-04-16T00:27:49;101252.06;;;2.01;43.40
65546;BME280;52177;55.968;37.498;2023-04-16T00:28:19;101244.34;;;1.98;43.22
65546;BME280;52177;55.968;37.498;2023-04-16T00:28:50;101248.00;;;1.95;43.50
65546;BME280;52177;55.968;37.498;2023-04-16T00:29:20;101253.41;;;1.92;43.28
65546;BME280;52177;55.968;37.498;2023-04-16T00:29:51;101259.41;;;1.94;43.06
65546;BME280;52177;55.968;37.498;2023-04-16T00:30:21;101253.50;;;1.90;43.49
65546;BME280;52177;55.968;37.498;2023-04-16T00:30:52;101250.03;;;1.90;43.59
65546;BME280;52177;55.968;37.498;2023-04-16T00:31:27;101258.81;;;1.89;43.54
65546;BME280;52177;55.968;37.498;2023-04-16T00:31:57;101249.25;;;1.88;43.46
65546;BME280;52177;55.968;37.498;2023-04-16T00:32:29;101254.50;;;1.88;43.53
65546;BME280;52177;55.968;37.498;2023-04-16T00:32:59;101259.66;;;1.89;43.46
65546;BME280;52177;55.968;37.498;2023-04-16T00:33:29;101252.66;;;1.90;43.59
65546;BME280;52177;55.968;37.498;2023-04-16T00:34:00;101253.56;;;1.89;43.57
65546;BME280;52177;55.968;37.498;2023-04-16T00:34:30;101252.72;;;1.88;43.52
65546;BME280;52177;55.968;37.498;2023-04-16T00:35:00;101251.78;;;1.89;43.60
65546;BME280;52177;55.968;37.498;2023-04-16T00:35:31;101256.19;;;1.89;43.54
65546;BME280;52177;55.968;37.498;2023-04-16T00:36:01;101256.19;;;1.89;43.96
65546;BME280;52177;55.968;37.498;2023-04-16T00:36:32;101257.16;;;1.88;44.00
65546;BME280;52177;55.968;37.498;2023-04-16T00:37:02;101255.44;;;1.87;43.99
65546;BME280;52177;55.968;37.498;2023-04-16T00:37:32;101254.66;;;1.85;43.93
65546;BME280;52177;55.968;37.498;2023-04-16T00:38:03;101252.03;;;1.85;43.76
65546;BME280;52177;55.968;37.498;2023-04-16T00:38:33;101259.06;;;1.84;43.89
65546;BME280;52177;55.968;37.498;2023-04-16T00:39:04;101252.13;;;1.83;43.91
65546;BME280;52177;55.968;37.498;2023-04-16T00:39:34;101258.31;;;1.82;44.29
65546;BME280;52177;55.968;37.498;2023-04-16T00:40:05;101247.97;;;1.79;43.90
65546;BME280;52177;55.968;37.498;2023-04-16T00:40:35;101252.38;;;1.79;43.99
65546;BME280;52177;55.968;37.498;2023-04-16T00:41:06;101253.28;;;1.78;44.53
65546;BME280;52177;55.968;37.498;2023-04-16T00:41:37;101251.59;;;1.77;44.54
65546;BME280;52177;55.968;37.498;2023-04-16T00:42:07;101251.66;;;1.75;44.60
65546;BME280;52177;55.968;37.498;2023-04-16T00:42:37;101250.91;;;1.73;44.55
65546;BME280;52177;55.968;37.498;2023-04-16T00:43:08;101252.78;;;1.71;44.66
65546;BME280;52177;55.968;37.498;2023-04-16T00:43:38;101254.53;;;1.71;44.98
65546;BME280;52177;55.968;37.498;2023-04-16T00:44:09;101250.31;;;1.68;45.42
65546;BME280;52177;55.968;37.498;2023-04-16T00:44:39;101253.03;;;1.66;44.99
65546;BME280;52177;55.968;37.498;2023-04-16T00:45:10;101252.34;;;1.63;44.81
65546;BME280;52177;55.968;37.498;2023-04-16T00:45:40;101255.91;;;1.62;45.01
65546;BME280;52177;55.968;37.498;2023-04-16T00:46:11;101253.34;;;1.60;45.11
65546;BME280;52177;55.968;37.498;2023-04-16T00:46:42;101249.94;;;1.58;45.08
65546;BME280;52177;55.968;37.498;2023-04-16T00:47:12;101254.28;;;1.59;45.28
65546;BME280;52177;55.968;37.498;2023-04-16T00:47:43;101247.47;;;1.55;45.38
65546;BME280;52177;55.968;37.498;2023-04-16T00:48:13;101257.91;;;1.57;45.78
65546;BME280;52177;55.968;37.498;2023-04-16T00:48:44;101254.53;;;1.55;46.06
65546;BME280;52177;55.968;37.498;2023-04-16T00:49:14;101252.75;;;1.55;45.95
65546;BME280;52177;55.968;37.498;2023-04-16T00:49:45;101250.19;;;1.54;45.85
65546;BME280;52177;55.968;37.498;2023-04-16T00:50:16;101259.78;;;1.55;46.16
65546;BME280;52177;55.968;37.498;2023-04-16T00:50:47;101256.38;;;1.53;46.10
65546;BME280;52177;55.968;37.498;2023-04-16T00:51:18;101261.63;;;1.53;46.33
65546;BME280;52177;55.968;37.498;2023-04-16T00:51:49;101259.84;;;1.53;45.98
65546;BME280;52177;55.968;37.498;2023-04-16T00:52:20;101260.75;;;1.52;45.62
65546;BME280;52177;55.968;37.498;2023-04-16T00:52:50;101256.38;;;1.53;45.89
65546;BME280;52177;55.968;37.498;2023-04-16T00:53:21;101258.06;;;1.54;45.94
65546;BME280;52177;55.968;37.498;2023-04-16T00:53:52;101258.06;;;1.54;45.79
65546;BME280;52177;55.968;37.498;2023-04-16T00:54:23;101256.28;;;1.54;45.40
65546;BME280;52177;55.968;37.498;2023-04-16T00:54:54;101253.66;;;1.54;45.73
65546;BME280;52177;55.968;37.498;2023-04-16T00:55:25;101253.66;;;1.54;45.77
65546;BME280;52177;55.968;37.498;2023-04-16T00:55:56;101257.22;;;1.53;46.11
65546;BME280;52177;55.968;37.498;2023-04-16T00:56:27;101260.75;;;1.52;45.90
65546;BME280;52177;55.968;37.498;2023-04-16T00:56:58;101260.75;;;1.52;45.79
65546;BME280;52177;55.968;37.498;2023-04-16T00:57:29;101261.72;;;1.51;45.74
65546;BME280;52177;55.968;37.498;2023-04-16T00:57:59;101252.97;;;1.51;45.76
65546;BME280;52177;55.968;37.498;2023-04-16T00:58:30;101253.81;;;1.51;45.78
65546;BME280;52177;55.968;37.498;2023-04-16T00:59:00;101261.72;;;1.51;45.67
65546;BME280;52177;55.968;37.498;2023-04-16T00:59:31;101245.94;;;1.51;45.95
65546;BME280;52177;55.968;37.498;2023-04-16T01:00:01;101261.72;;;1.51;46.08
65546;BME280;52177;55.968;37.498;2023-04-16T01:00:32;101252.13;;;1.50;45.99
65546;BME280;52177;55.968;37.498;2023-04-16T01:01:02;101253.03;;;1.49;45.89
65546;BME280;52177;55.968;37.498;2023-04-16T01:01:32;101256.53;;;1.50;45.97
65546;BME280;52177;55.968;37.498;2023-04-16T01:02:03;101255.69;;;1.49;46.18
65546;BME280;52177;55.968;37.498;2023-04-16T01:02:33;101248.72;;;1.48;46.53
65546;BME280;52177;55.968;37.498;2023-04-16T01:03:04;101250.59;;;1.46;46.52
65546;BME280;52177;55.968;37.498;2023-04-16T01:03:44;101257.53;;;1.47;46.50
65546;BME280;52177;55.968;37.498;2023-04-16T01:04:14;101253.28;;;1.44;46.35
65546;BME280;52177;55.968;37.498;2023-04-16T01:04:45;101248.97;;;1.43;46.08
65546;BME280;52177;55.968;37.498;2023-04-16T01:05:15;101257.88;;;1.41;46.20
65546;BME280;52177;55.968;37.498;2023-04-16T01:05:46;101252.63;;;1.41;45.91
65546;BME280;52177;55.968;37.498;2023-04-16T01:06:18;101255.25;;;1.41;46.45
65546;BME280;52177;55.968;37.498;2023-04-16T01:06:48;101249.09;;;1.40;46.92
65546;BME280;52177;55.968;37.498;2023-04-16T01:07:20;101249.22;;;1.39;46.96
65546;BME280;52177;55.968;37.498;2023-04-16T01:07:50;101246.59;;;1.39;46.54
65546;BME280;52177;55.968;37.498;2023-04-16T01:08:21;101254.47;;;1.39;46.71
65546;BME280;52177;55.968;37.498;2023-04-16T01:08:52;101251.84;;;1.39;46.79
65546;BME280;52177;55.968;37.498;2023-04-16T01:09:22;101248.38;;;1.38;46.73
65546;BME280;52177;55.968;37.498;2023-04-16T01:09:52;101246.66;;;1.37;46.72
65546;BME280;52177;55.968;37.498;2023-04-16T01:10:23;101253.69;;;1.37;46.85
65546;BME280;52177;55.968;37.498;2023-04-16T01:10:53;101248.44;;;1.37;46.74
65546;BME280;52177;55.968;37.498;2023-04-16T01:11:26;101251.97;;;1.36;46.45
65546;BME280;52177;55.968;37.498;2023-04-16T01:11:57;101255.47;;;1.36;46.66
65546;BME280;52177;55.968;37.498;2023-04-16T01:12:27;101246.72;;;1.36;47.02
65546;BME280;52177;55.968;37.498;2023-04-16T01:12:57;101252.91;;;1.35;47.26
65546;BME280;52177;55.968;37.498;2023-04-16T01:13:28;101252.06;;;1.34;47.09
65546;BME280;52177;55.968;37.498;2023-04-16T01:13:59;101253.09;;;1.32;46.92
65546;BME280;52177;55.968;37.498;2023-04-16T01:14:29;101246.88;;;1.33;47.04
65546;BME280;52177;55.968;37.498;2023-04-16T01:15:05;101250.34;;;1.33;47.11
65546;BME280;52177;55.968;37.498;2023-04-16T01:15:36;101247.84;;;1.32;47.31
65546;BME280;52177;55.968;37.498;2023-04-16T01:16:08;101253.09;;;1.32;47.15
65546;BME280;52177;55.968;37.498;2023-04-16T01:16:38;101244.25;;;1.33;46.88
65546;BME280;52177;55.968;37.498;2023-04-16T01:17:08;101248.69;;;1.32;47.34
65546;BME280;52177;55.968;37.498;2023-04-16T01:17:39;101247.00;;;1.31;47.47
65546;BME280;52177;55.968;37.498;2023-04-16T01:18:16;101245.28;;;1.30;47.80
65546;BME280;52177;55.968;37.498;2023-04-16T01:18:47;101253.22;;;1.29;47.72
65546;BME280;52177;55.968;37.498;2023-04-16T01:19:17;101254.16;;;1.27;47.46
65546;BME280;52177;55.968;37.498;2023-04-16T01:19:48;101253.31;;;1.27;47.48
65546;BME280;52177;55.968;37.498;2023-04-16T01:20:18;101243.66;;;1.27;47.65
65546;BME280;52177;55.968;37.498;2023-04-16T01:20:49;101251.69;;;1.24;47.70
65546;BME280;52177;55.968;37.498;2023-04-16T01:21:20;101242.03;;;1.25;47.94
65546;BME280;52177;55.968;37.498;2023-04-16T01:21:50;101245.56;;;1.24;47.99
65546;BME280;52177;55.968;37.498;2023-04-16T01:22:21;101245.69;;;1.22;47.88
65546;BME280;52177;55.968;37.498;2023-04-16T01:22:51;101247.34;;;1.23;47.64
65546;BME280;52177;55.968;37.498;2023-04-16T01:23:21;101248.19;;;1.24;47.44
65546;BME280;52177;55.968;37.498;2023-04-16T01:23:52;101244.72;;;1.23;47.63
65546;BME280;52177;55.968;37.498;2023-04-16T01:24:22;101245.56;;;1.24;47.59
65546;BME280;52177;55.968;37.498;2023-04-16T01:24:52;101242.88;;;1.25;47.61
65546;BME280;52177;55.968;37.498;2023-04-16T01:25:23;101245.56;;;1.24;47.72
65546;BME280;52177;55.968;37.498;2023-04-16T01:25:53;101239.47;;;1.23;47.63
65546;BME280;52177;55.968;37.498;2023-04-16T01:26:23;101248.31;;;1.22;47.74
65546;BME280;52177;55.968;37.498;2023-04-16T01:26:56;101247.47;;;1.22;47.70
65546;BME280;52177;55.968;37.498;2023-04-16T01:27:27;101242.19;;;1.22;47.65
65546;BME280;52177;55.968;37.498;2023-04-16T01:27:57;101242.19;;;1.22;47.50
65546;BME280;52177;55.968;37.498;2023-04-16T01:28:28;101247.47;;;1.22;47.38
65546;BME280;52177;55.968;37.498;2023-04-16T01:29:01;101242.19;;;1.22;47.74
65546;BME280;52177;55.968;37.498;2023-04-16T01:29:32;101249.22;;;1.21;48.05
65546;BME280;52177;55.968;37.498;2023-04-16T01:30:03;101248.31;;;1.22;47.96
65546;BME280;52177;55.968;37.498;2023-04-16T01:30:34;101243.97;;;1.21;47.72
65546;BME280;52177;55.968;37.498;2023-04-16T01:31:04;101243.13;;;1.21;47.81
65546;BME280;52177;55.968;37.498;2023-04-16T01:31:34;101244.06;;;1.20;47.57
65546;BME280;52177;55.968;37.498;2023-04-16T01:32:05;101247.59;;;1.19;47.61
65546;BME280;52177;55.968;37.498;2023-04-16T01:32:35;101242.44;;;1.17;47.87
65546;BME280;52177;55.968;37.498;2023-04-16T01:33:06;101245.06;;;1.17;47.69
65546;BME280;52177;55.968;37.498;2023-04-16T01:33:37;101245.13;;;1.16;47.71
65546;BME280;52177;55.968;37.498;2023-04-16T01:34:08;101242.50;;;1.16;47.43
65546;BME280;52177;55.968;37.498;2023-04-16T01:34:38;101244.19;;;1.17;47.57
65546;BME280;52177;55.968;37.498;2023-04-16T01:35:09;101242.50;;;1.16;47.63
65546;BME280;52177;55.968;37.498;2023-04-16T01:35:39;101240.66;;;1.18;47.76
65546;BME280;52177;55.968;37.498;2023-04-16T01:36:10;101247.59;;;1.19;47.91
65546;BME280;52177;55.968;37.498;2023-04-16T01:36:40;101247.59;;;1.19;48.19
65546;BME280;52177;55.968;37.498;2023-04-16T01:37:11;101249.22;;;1.21;47.99
65546;BME280;52177;55.968;37.498;2023-04-16T01:37:41;101249.31;;;1.20;48.08
65546;BME280;52177;55.968;37.498;2023-04-16T01:38:12;101243.19;;;1.19;47.84
65546;BME280;52177;55.968;37.498;2023-04-16T01:38:42;101244.91;;;1.20;47.88
65546;BME280;52177;55.968;37.498;2023-04-16T01:39:12;101248.31;;;1.22;47.65
65546;BME280;52177;55.968;37.498;2023-04-16T01:39:45;101245.69;;;1.22;47.94
65546;BME280;52177;55.968;37.498;2023-04-16T01:40:16;101243.03;;;1.22;48.19
65546;BME280;52177;55.968;37.498;2023-04-16T01:40:46;101250.81;;;1.24;48.05
65546;BME280;52177;55.968;37.498;2023-04-16T01:41:17;101245.56;;;1.24;48.34
65546;BME280;52177;55.968;37.498;2023-04-16T01:41:47;101249.06;;;1.24;48.47
65546;BME280;52177;55.968;37.498;2023-04-16T01:42:17;101240.41;;;1.22;48.18
65546;BME280;52177;55.968;37.498;2023-04-16T01:42:48;101249.13;;;1.23;48.12
65546;BME280;52177;55.968;37.498;2023-04-16T01:43:18;101243.03;;;1.22;48.38
65546;BME280;52177;55.968;37.498;2023-04-16T01:43:48;101250.94;;;1.22;48.36
65546;BME280;52177;55.968;37.498;2023-04-16T01:44:19;101247.47;;;1.22;48.19
65546;BME280;52177;55.968;37.498;2023-04-16T01:44:50;101250.09;;;1.22;48.43
65546;BME280;52177;55.968;37.498;2023-04-16T01:45:21;101243.03;;;1.22;48.23
65546;BME280;52177;55.968;37.498;2023-04-16T01:45:53;101248.31;;;1.22;47.68
65546;BME280;52177;55.968;37.498;2023-04-16T01:46:30;101247.47;;;1.22;48.03
65546;BME280;52177;55.968;37.498;2023-04-16T01:47:01;101245.75;;;1.21;48.30
65546;BME280;52177;55.968;37.498;2023-04-16T01:47:31;101241.44;;;1.20;48.31
65546;BME280;52177;55.968;37.498;2023-04-16T01:48:02;101246.59;;;1.21;47.90
65546;BME280;52177;55.968;37.498;2023-04-16T01:48:33;101246.59;;;1.21;47.70
65546;BME280;52177;55.968;37.498;2023-04-16T01:49:04;101246.59;;;1.21;48.23
65546;BME280;52177;55.968;37.498;2023-04-16T01:49:36;101246.59;;;1.21;48.47
65546;BME280;52177;55.968;37.498;2023-04-16T01:50:06;101244.91;;;1.20;48.54
65546;BME280;52177;55.968;37.498;2023-04-16T01:50:37;101243.19;;;1.19;48.54
65546;BME280;52177;55.968;37.498;2023-04-16T01:51:07;101241.44;;;1.20;48.17
65546;BME280;52177;55.968;37.498;2023-04-16T01:51:39;101244.91;;;1.20;48.68
65546;BME280;52177;55.968;37.498;2023-04-16T01:52:09;101243.13;;;1.21;48.94
65546;BME280;52177;55.968;37.498;2023-04-16T01:52:39;101246.69;;;1.20;48.81
65546;BME280;52177;55.968;37.498;2023-04-16T01:53:10;101241.44;;;1.20;48.73
65546;BME280;52177;55.968;37.498;2023-04-16T01:53:40;101246.75;;;1.18;49.02
65546;BME280;52177;55.968;37.498;2023-04-16T01:54:10;101245.91;;;1.18;48.83
65546;BME280;52177;55.968;37.498;2023-04-16T01:54:41;101241.50;;;1.18;48.73
65546;BME280;52177;55.968;37.498;2023-04-16T01:55:12;101252.00;;;1.18;48.88
65546;BME280;52177;55.968;37.498;2023-04-16T01:55:42;101250.38;;;1.16;49.04
65546;BME280;52177;55.968;37.498;2023-04-16T01:56:13;101240.72;;;1.16;49.03
65546;BME280;52177;55.968;37.498;2023-04-16T01:56:43;101249.53;;;1.15;48.95
65546;BME280;52177;55.968;37.498;2023-04-16T01:57:13;101239.03;;;1.15;49.18
65546;BME280;52177;55.968;37.498;2023-04-16T01:57:44;101245.97;;;1.16;49.17
65546;BME280;52177;55.968;37.498;2023-04-16T01:58:14;101246.06;;;1.15;49.49
65546;BME280;52177;55.968;37.498;2023-04-16T01:58:44;101251.31;;;1.15;49.46
65546;BME280;52177;55.968;37.498;2023-04-16T01:59:16;101242.56;;;1.14;49.54
65546;BME280;52177;55.968;37.498;2023-04-16T01:59:46;101246.97;;;1.14;49.23
65546;BME280;52177;55.968;37.498;2023-04-16T02:00:16;101251.31;;;1.15;49.40
65546;BME280;52177;55.968;37.498;2023-04-16T02:00:47;101246.06;;;1.15;49.47
65546;BME280;52177;55.968;37.498;2023-04-16T02:01:17;101250.44;;;1.14;49.25
65546;BME280;52177;55.968;37.498;2023-04-16T02:01:48;101252.16;;;1.15;49.43
65546;BME280;52177;55.968;37.498;2023-04-16T02:02:21;101241.66;;;1.15;49.05
65546;BME280;52177;55.968;37.498;2023-04-16T02:02:56;101243.34;;;1.16;49.12
65546;BME280;52177;55.968;37.498;2023-04-16T02:03:27;101245.13;;;1.16;49.08
65546;BME280;52177;55.968;37.498;2023-04-16T02:03:57;101253.84;;;1.16;49.00
65546;BME280;52177;55.968;37.498;2023-04-16T02:04:28;101250.31;;;1.17;49.09
65546;BME280;52177;55.968;37.498;2023-04-16T02:04:58;101251.22;;;1.16;48.83
65546;BME280;52177;55.968;37.498;2023-04-16T02:05:28;101259.94;;;1.17;48.79
65546;BME280;52177;55.968;37.498;2023-04-16T02:05:59;101252.06;;;1.17;49.02
65546;BME280;52177;55.968;37.498;2023-04-16T02:06:30;101249.44;;;1.17;49.20
65546;BME280;52177;55.968;37.498;2023-04-16T02:07:00;101252.06;;;1.17;49.44
65546;BME280;52177;55.968;37.498;2023-04-16T02:07:31;101248.59;;;1.16;49.59
65546;BME280;52177;55.968;37.498;2023-04-16T02:08:01;101250.44;;;1.14;49.35
65546;BME280;52177;55.968;37.498;2023-04-16T02:08:31;101256.47;;;1.16;49.29
65546;BME280;52177;55.968;37.498;2023-04-16T02:09:02;101243.44;;;1.15;49.48
65546;BME280;52177;55.968;37.498;2023-04-16T02:09:33;101253.94;;;1.15;49.41
65546;BME280;52177;55.968;37.498;2023-04-16T02:10:04;101251.38;;;1.13;49.57
65546;BME280;52177;55.968;37.498;2023-04-16T02:10:34;101247.06;;;1.12;49.42
65546;BME280;52177;55.968;37.498;2023-04-16T02:11:05;101250.63;;;1.11;49.20
65546;BME280;52177;55.968;37.498;2023-04-16T02:11:35;101248.94;;;1.10;49.14
65546;BME280;52177;55.968;37.498;2023-04-16T02:12:06;101248.94;;;1.10;49.55
65546;BME280;52177;55.968;37.498;2023-04-16T02:12:36;101259.44;;;1.10;49.75
65546;BME280;52177;55.968;37.498;2023-04-16T02:13:07;101250.69;;;1.10;49.44
65546;BME280;52177;55.968;37.498;2023-04-16T02:13:37;101249.84;;;1.09;49.66
65546;BME280;52177;55.968;37.498;2023-04-16T02:14:07;101247.22;;;1.09;49.80
65546;BME280;52177;55.968;37.498;2023-04-16T02:14:38;101254.19;;;1.10;49.62
65546;BME280;52177;55.968;37.498;2023-04-16T02:15:08;101252.47;;;1.09;49.79
65546;BME280;52177;55.968;37.498;2023-04-16T02:15:39;101254.19;;;1.10;49.97
65546;BME280;52177;55.968;37.498;2023-04-16T02:16:09;101254.19;;;1.10;49.66
65546;BME280;52177;55.968;37.498;2023-04-16T02:16:40;101248.06;;;1.10;49.91
65546;BME280;52177;55.968;37.498;2023-04-16T02:17:10;101257.66;;;1.11;49.91
65546;BME280;52177;55.968;37.498;2023-04-16T02:17:41;101255.03;;;1.11;49.88
65546;BME280;52177;55.968;37.498;2023-04-16T02:18:11;101247.06;;;1.12;50.12
65546;BME280;52177;55.968;37.498;2023-04-16T02:18:42;101247.06;;;1.12;50.21
65546;BME280;52177;55.968;37.498;2023-04-16T02:19:12;101256.66;;;1.13;50.14
65546;BME280;52177;55.968;37.498;2023-04-16T02:19:42;101249.69;;;1.12;50.16
65546;BME280;52177;55.968;37.498;2023-04-16T02:20:13;101255.81;;;1.13;50.36
65546;BME280;52177;55.968;37.498;2023-04-16T02:20:44;101249.78;;;1.11;50.56
65546;BME280;52177;55.968;37.498;2023-04-16T02:21:15;101263.75;;;1.11;50.37
65546;BME280;52177;55.968;37.498;2023-04-16T02:21:45;101254.09;;;1.12;50.05
65546;BME280;52177;55.968;37.498;2023-04-16T02:22:16;101254.03;;;1.13;49.79
65546;BME280;52177;55.968;37.498;2023-04-16T02:22:46;101254.03;;;1.13;49.98
65546;BME280;52177;55.968;37.498;2023-04-16T02:23:17;101253.06;;;1.14;49.98
65546;BME280;52177;55.968;37.498;2023-04-16T02:23:47;101255.69;;;1.14;50.12
65546;BME280;52177;55.968;37.498;2023-04-16T02:24:20;101253.06;;;1.14;50.26
65546;BME280;52177;55.968;37.498;2023-04-16T02:24:51;101250.56;;;1.13;50.48
65546;BME280;52177;55.968;37.498;2023-04-16T02:25:21;101254.94;;;1.12;50.31
65546;BME280;52177;55.968;37.498;2023-04-16T02:25:53;101250.56;;;1.13;50.25
65546;BME280;52177;55.968;37.498;2023-04-16T02:26:23;101251.47;;;1.12;50.16
65546;BME280;52177;55.968;37.498;2023-04-16T02:26:55;101253.31;;;1.10;50.20
65546;BME280;52177;55.968;37.498;2023-04-16T02:27:26;101259.44;;;1.10;50.10
65546;BME280;52177;55.968;37.498;2023-04-16T02:27:56;101253.31;;;1.10;50.56
65546;BME280;52177;55.968;37.498;2023-04-16T02:28:26;101257.72;;;1.09;50.33
65546;BME280;52177;55.968;37.498;2023-04-16T02:28:57;101246.38;;;1.09;50.46
65546;BME280;52177;55.968;37.498;2023-04-16T02:29:27;101257.72;;;1.09;50.54
65546;BME280;52177;55.968;37.498;2023-04-16T02:29:57;101248.22;;;1.07;50.44
65546;BME280;52177;55.968;37.498;2023-04-16T02:30:28;101256.94;;;1.07;50.50
65546;BME280;52177;55.968;37.498;2023-04-16T02:30:58;101254.31;;;1.07;50.48
65546;BME280;52177;55.968;37.498;2023-04-16T02:31:29;101255.16;;;1.08;50.67
65546;BME280;52177;55.968;37.498;2023-04-16T02:32:00;101251.63;;;1.09;50.84
65546;BME280;52177;55.968;37.498;2023-04-16T02:32:31;101256.03;;;1.08;50.80
65546;BME280;52177;55.968;37.498;2023-04-16T02:33:05;101255.16;;;1.08;50.90
65546;BME280;52177;55.968;37.498;2023-04-16T02:33:36;101257.72;;;1.09;50.96
65546;BME280;52177;55.968;37.498;2023-04-16T02:34:06;101254.25;;;1.09;50.88
65546;BME280;52177;55.968;37.498;2023-04-16T02:34:37;101252.53;;;1.08;50.69
65546;BME280;52177;55.968;37.498;2023-04-16T02:35:09;101260.34;;;1.09;50.52
65546;BME280;52177;55.968;37.498;2023-04-16T02:35:39;101251.63;;;1.09;50.75
65546;BME280;52177;55.968;37.498;2023-04-16T02:36:10;101256.81;;;1.10;50.64
65546;BME280;52177;55.968;37.498;2023-04-16T02:36:41;101251.56;;;1.10;50.72
65546;BME280;52177;55.968;37.498;2023-04-16T02:37:12;101248.00;;;1.11;51.03
65546;BME280;52177;55.968;37.498;2023-04-16T02:37:44;101248.00;;;1.11;51.09
65546;BME280;52177;55.968;37.498;2023-04-16T02:38:15;101248.06;;;1.10;51.19
65546;BME280;52177;55.968;37.498;2023-04-16T02:38:45;101251.47;;;1.12;50.90
65546;BME280;52177;55.968;37.498;2023-04-16T02:39:16;101247.94;;;1.13;50.82
65546;BME280;52177;55.968;37.498;2023-04-16T02:39:46;101249.59;;;1.14;50.63
65546;BME280;52177;55.968;37.498;2023-04-16T02:40:18;101252.16;;;1.15;50.77
65546;BME280;52177;55.968;37.498;2023-04-16T02:40:49;101246.91;;;1.15;51.19